createdAt,value
2019-04-13T00:00:52.131Z,74.02
2019-04-13T00:03:20.630Z,74.47
2019-04-13T00:06:02.940Z,74.73
2019-04-13T00:08:33.196Z,74.17
2019-04-13T00:11:06.344Z,73.85
2019-04-13T00:13:35.298Z,73.70
2019-04-13T00:16:04.356Z,73.43
2019-04-13T00:18:32.966Z,73.11
2019-04-13T00:21:01.575Z,73.58
2019-04-13T00:23:30.187Z,73.13
2019-04-13T00:25:59.203Z,72.51
2019-04-13T00:28:27.959Z,72.37
2019-04-13T00:30:56.629Z,73.68
2019-04-13T00:33:25.249Z,73.11
2019-04-13T00:35:53.858Z,73.01
2019-04-13T00:38:22.660Z,73.01
2019-04-13T00:40:52.746Z,72.66
2019-04-13T00:43:22.812Z,72.76
2019-04-13T00:45:53.243Z,73.61
2019-04-13T00:48:21.833Z,73.71
2019-04-13T00:50:52.286Z,73.00
2019-04-13T00:53:23.349Z,74.85
2019-04-13T00:55:51.988Z,76.09
2019-04-13T00:58:20.617Z,75.17
2019-04-13T01:00:50.399Z,75.55
2019-04-13T01:03:18.917Z,74.71
2019-04-13T01:05:47.593Z,74.25
2019-04-13T01:08:16.207Z,75.21
2019-04-13T01:10:44.825Z,75.28
2019-04-13T01:13:13.379Z,74.75
2019-04-13T01:15:42.472Z,74.91
2019-04-13T01:18:11.079Z,74.82
2019-04-13T01:20:39.791Z,74.93
2019-04-13T01:23:08.347Z,74.75
2019-04-13T01:25:37.013Z,76.01
2019-04-13T01:28:05.621Z,76.42
2019-04-13T01:30:34.334Z,76.07
2019-04-13T01:33:02.943Z,74.84
2019-04-13T01:35:31.588Z,75.57
2019-04-13T01:38:00.582Z,76.37
2019-04-13T01:40:29.157Z,76.44
2019-04-13T01:42:57.714Z,75.94
2019-04-13T01:45:26.432Z,76.16
2019-04-13T01:47:57.233Z,76.50
2019-04-13T01:50:25.373Z,75.73
2019-04-13T01:52:53.923Z,75.49
2019-04-13T01:55:22.497Z,75.82
2019-04-13T01:57:51.075Z,74.95
2019-04-13T02:00:21.818Z,74.95
2019-04-13T02:02:52.107Z,75.71
2019-04-13T02:05:27.991Z,76.36
2019-04-13T02:07:58.628Z,76.43
2019-04-13T02:10:31.890Z,75.67
2019-04-13T02:13:00.403Z,76.52
2019-04-13T02:15:29.471Z,76.46
2019-04-13T02:17:58.083Z,75.55
2019-04-13T02:20:26.968Z,76.71
2019-04-13T02:22:55.519Z,76.95
2019-04-13T02:25:24.108Z,76.32
2019-04-13T02:27:52.722Z,77.34
2019-04-13T02:30:22.997Z,76.64
2019-04-13T02:32:54.614Z,76.78
2019-04-13T02:35:35.247Z,76.43
2019-04-13T02:37:53.648Z,76.23
2019-04-13T02:40:25.237Z,75.95
2019-04-13T02:42:53.824Z,77.05
2019-04-13T02:45:25.372Z,76.17
2019-04-13T02:47:54.365Z,76.20
2019-04-13T02:50:23.017Z,75.84
2019-04-13T02:52:54.795Z,75.69
2019-04-13T02:55:23.410Z,76.11
2019-04-13T02:57:52.143Z,76.10
2019-04-13T03:00:20.880Z,75.60
2019-04-13T03:02:49.550Z,75.64
2019-04-13T03:05:18.171Z,77.01
2019-04-13T03:07:46.812Z,75.16
2019-04-13T03:10:15.833Z,75.40
2019-04-13T03:12:44.411Z,75.04
2019-04-13T03:15:13.353Z,75.67
2019-04-13T03:17:55.949Z,74.90
2019-04-13T03:20:26.133Z,75.09
2019-04-13T03:22:55.168Z,75.16
2019-04-13T03:25:23.778Z,75.73
2019-04-13T03:27:52.491Z,75.74
2019-04-13T03:30:22.953Z,75.40
2019-04-13T03:32:54.533Z,74.64
2019-04-13T03:35:23.456Z,75.19
2019-04-13T03:37:53.613Z,74.58
2019-04-13T03:40:25.298Z,76.20
2019-04-13T03:42:53.901Z,75.63
2019-04-13T03:45:22.941Z,74.23
2019-04-13T03:47:54.539Z,74.85
2019-04-13T03:50:23.252Z,73.79
2019-04-13T03:52:51.831Z,74.26
2019-04-13T03:55:20.505Z,73.46
2019-04-13T03:57:50.291Z,74.77
2019-04-13T04:00:18.848Z,75.18
2019-04-13T04:02:47.419Z,74.66
2019-04-13T04:05:15.978Z,73.66
2019-04-13T04:07:44.607Z,73.67
2019-04-13T04:10:13.729Z,73.53
2019-04-13T04:12:42.295Z,73.56
2019-04-13T04:15:11.249Z,73.68
2019-04-13T04:17:39.861Z,74.49
2019-04-13T04:20:09.171Z,74.28
2019-04-13T04:22:37.729Z,74.36
2019-04-13T04:25:06.509Z,72.98
2019-04-13T04:27:35.116Z,73.95
2019-04-13T04:30:04.555Z,73.54
2019-04-13T04:32:33.115Z,74.83
2019-04-13T04:35:01.767Z,73.17
2019-04-13T04:37:30.481Z,73.21
2019-04-13T04:39:59.086Z,73.97
2019-04-13T04:42:27.649Z,73.82
2019-04-13T04:44:56.314Z,74.34
2019-04-13T04:47:24.862Z,74.17
2019-04-13T04:49:53.437Z,73.41
2019-04-13T04:52:23.615Z,73.18
2019-04-13T04:54:55.091Z,73.51
2019-04-13T04:57:23.648Z,72.98
2019-04-13T04:59:55.358Z,73.25
2019-04-13T05:02:23.876Z,74.02
2019-04-13T05:04:52.449Z,73.08
2019-04-13T05:07:20.994Z,71.78
2019-04-13T05:09:51.638Z,73.15
2019-04-13T05:12:21.931Z,73.00
2019-04-13T05:14:50.500Z,71.31
2019-04-13T05:17:20.391Z,71.69
2019-04-13T05:19:49.306Z,72.23
2019-04-13T05:22:26.084Z,71.45
2019-04-13T05:24:48.157Z,70.47
2019-04-13T05:27:16.713Z,70.79
2019-04-13T05:29:45.294Z,70.65
2019-04-13T05:32:13.852Z,70.46
2019-04-13T05:34:42.495Z,69.23
2019-04-13T05:37:11.046Z,70.01
2019-04-13T05:39:39.624Z,70.46
2019-04-13T05:42:08.610Z,69.74
2019-04-13T05:44:37.539Z,70.01
2019-04-13T05:47:06.091Z,68.75
2019-04-13T05:49:34.658Z,68.54
2019-04-13T05:52:03.235Z,68.93
2019-04-13T05:54:31.850Z,69.95
2019-04-13T05:57:00.468Z,69.42
2019-04-13T05:59:29.115Z,69.15
2019-04-13T06:01:58.110Z,69.97
2019-04-13T06:04:26.738Z,68.59
2019-04-13T06:07:00.143Z,69.23
2019-04-13T06:09:27.042Z,69.55
2019-04-13T06:11:55.662Z,68.37
2019-04-13T06:14:24.332Z,68.96
2019-04-13T06:16:52.902Z,68.12
2019-04-13T06:19:23.166Z,67.35
2019-04-13T06:21:54.256Z,67.93
2019-04-13T06:24:22.860Z,66.85
2019-04-13T06:26:53.016Z,66.47
2019-04-13T06:29:24.580Z,66.08
2019-04-13T06:32:09.889Z,65.46
2019-04-13T06:34:40.073Z,65.20
2019-04-13T06:37:12.508Z,65.83
2019-04-13T06:39:38.938Z,65.79
2019-04-13T06:42:07.649Z,65.55
2019-04-13T06:44:36.516Z,66.06
2019-04-13T06:47:05.522Z,66.06
2019-04-13T06:49:34.458Z,65.73
2019-04-13T06:52:04.088Z,64.48
2019-04-13T06:54:32.801Z,64.52
2019-04-13T06:57:01.514Z,64.52
2019-04-13T06:59:30.066Z,64.60
2019-04-13T07:01:58.722Z,63.42
2019-04-13T07:04:27.269Z,63.23
2019-04-13T07:06:57.618Z,63.67
2019-04-13T07:09:28.422Z,62.85
2019-04-13T07:11:58.165Z,63.15
2019-04-13T07:14:26.738Z,61.93
2019-04-13T07:16:56.964Z,63.10
2019-04-13T07:19:25.509Z,62.40
2019-04-13T07:21:54.094Z,61.09
2019-04-13T07:24:22.636Z,61.09
2019-04-13T07:26:52.800Z,62.76
2019-04-13T07:29:24.430Z,61.18
2019-04-13T07:31:53.131Z,60.13
2019-04-13T07:34:21.674Z,60.76
2019-04-13T07:36:51.899Z,60.76
2019-04-13T07:39:20.767Z,60.96
2019-04-13T07:41:49.340Z,60.26
2019-04-13T07:44:22.363Z,61.55
2019-04-13T07:47:10.399Z,61.55
2019-04-13T07:49:46.772Z,59.67
2019-04-13T07:52:16.974Z,59.72
2019-04-13T07:54:46.000Z,59.90
2019-04-13T07:57:15.091Z,59.41
2019-04-13T07:59:43.637Z,59.41
2019-04-13T08:02:12.995Z,59.72
2019-04-13T08:04:41.545Z,59.72
2019-04-13T08:07:10.111Z,57.81
2019-04-13T08:09:38.682Z,57.80
2019-04-13T08:12:07.230Z,57.80
2019-04-13T08:14:35.804Z,58.27
2019-04-13T08:17:06.660Z,58.11
2019-04-13T08:19:40.278Z,57.36
2019-04-13T08:22:08.840Z,56.83
2019-04-13T08:24:37.438Z,57.18
2019-04-13T08:27:06.048Z,56.78
2019-04-13T08:29:34.659Z,55.49
2019-04-13T08:32:03.274Z,55.95
2019-04-13T08:34:31.855Z,55.83
2019-04-13T08:37:03.420Z,55.02
2019-04-13T08:39:31.277Z,55.52
2019-04-13T08:41:59.822Z,55.26
2019-04-13T08:44:28.410Z,55.07
2019-04-13T08:46:56.991Z,55.38
2019-04-13T08:49:25.578Z,53.35
2019-04-13T08:51:54.200Z,54.53
2019-04-13T08:54:22.825Z,53.50
2019-04-13T08:56:52.857Z,53.90
2019-04-13T08:59:22.948Z,54.70
2019-04-13T09:01:54.455Z,54.37
2019-04-13T09:04:23.136Z,52.96
2019-04-13T09:06:51.702Z,53.70
2019-04-13T09:09:22.026Z,53.23
2019-04-13T09:11:51.475Z,54.28
2019-04-13T09:14:20.123Z,52.90
2019-04-13T09:16:49.377Z,52.51
2019-04-13T09:19:39.356Z,52.47
2019-04-13T09:22:09.625Z,53.35
2019-04-13T09:24:38.271Z,52.09
2019-04-13T09:27:07.575Z,50.67
2019-04-13T09:29:36.671Z,52.35
2019-04-13T09:32:05.281Z,50.73
2019-04-13T09:34:34.859Z,52.38
2019-04-13T09:37:03.521Z,49.81
2019-04-13T09:39:32.070Z,50.77
2019-04-13T09:42:00.632Z,48.79
2019-04-13T09:44:31.566Z,47.48
2019-04-13T09:47:01.744Z,47.90
2019-04-13T09:49:30.601Z,47.18
2019-04-13T09:52:00.192Z,47.30
2019-04-13T09:54:29.689Z,48.09
2019-04-13T09:56:58.267Z,48.61
2019-04-13T09:59:26.804Z,48.64
2019-04-13T10:01:55.809Z,48.89
2019-04-13T10:04:24.363Z,49.74
2019-04-13T10:06:52.951Z,46.99
2019-04-13T10:09:21.872Z,47.34
2019-04-13T10:12:08.198Z,46.59
2019-04-13T10:14:54.639Z,46.35
2019-04-13T10:17:27.797Z,47.21
2019-04-13T10:19:55.189Z,45.17
2019-04-13T10:22:24.625Z,45.69
2019-04-13T10:24:53.421Z,46.56
2019-04-13T10:27:23.537Z,46.45
2019-04-13T10:29:53.628Z,43.45
2019-04-13T10:32:23.820Z,43.76
2019-04-13T10:34:55.286Z,44.27
2019-04-13T10:37:23.911Z,45.36
2019-04-13T10:39:52.479Z,47.13
2019-04-13T10:42:21.067Z,45.68
2019-04-13T10:44:51.767Z,47.45
2019-04-13T10:47:30.541Z,48.99
2019-04-13T10:50:00.734Z,49.19
2019-04-13T10:52:29.311Z,48.65
2019-04-13T10:54:57.873Z,49.17
2019-04-13T10:57:26.849Z,50.13
2019-04-13T10:59:58.241Z,49.16
2019-04-13T11:02:25.696Z,47.00
2019-04-13T11:04:54.398Z,48.52
2019-04-13T11:07:22.951Z,44.96
2019-04-13T11:09:51.702Z,44.53
2019-04-13T11:12:21.992Z,44.43
2019-04-13T11:14:50.631Z,43.61
2019-04-13T11:17:20.914Z,44.26
2019-04-13T11:19:52.005Z,45.86
2019-04-13T11:22:22.103Z,45.02
2019-04-13T11:24:50.758Z,43.31
2019-04-13T11:27:19.678Z,43.45
2019-04-13T11:29:48.330Z,44.03
2019-04-13T11:32:16.880Z,45.34
2019-04-13T11:34:45.449Z,47.23
2019-04-13T11:37:14.008Z,45.37
2019-04-13T11:39:42.579Z,44.20
2019-04-13T11:42:12.847Z,44.63
2019-04-13T11:44:47.939Z,44.15
2019-04-13T11:47:17.475Z,42.79
2019-04-13T11:49:46.127Z,42.41
2019-04-13T11:52:14.689Z,42.41
2019-04-13T11:54:43.268Z,42.20
2019-04-13T11:57:12.049Z,41.78
2019-04-13T11:59:40.676Z,42.00
2019-04-13T12:02:10.868Z,43.60
2019-04-13T12:04:41.078Z,43.85
2019-04-13T12:07:11.937Z,44.58
2019-04-13T12:09:58.392Z,45.06
2019-04-13T12:12:28.582Z,45.21
2019-04-13T12:15:07.241Z,44.81
2019-04-13T12:17:36.547Z,45.79
2019-04-13T12:20:10.669Z,44.53
2019-04-13T12:22:40.849Z,42.78
2019-04-13T12:25:09.571Z,44.27
2019-04-13T12:27:38.210Z,42.91
2019-04-13T12:30:10.630Z,42.61
2019-04-13T12:32:39.949Z,42.61
2019-04-13T12:35:11.458Z,44.47
2019-04-13T12:37:39.021Z,43.86
2019-04-13T12:40:11.751Z,45.09
2019-04-13T12:42:39.764Z,44.73
2019-04-13T12:45:08.609Z,44.95
2019-04-13T12:47:42.201Z,45.62
2019-04-13T12:50:07.712Z,45.26
2019-04-13T12:52:36.273Z,44.60
2019-04-13T12:55:06.113Z,45.11
2019-04-13T12:57:34.726Z,46.70
2019-04-13T13:00:08.061Z,42.96
2019-04-13T13:02:51.745Z,43.37
2019-04-13T13:05:24.731Z,41.35
2019-04-13T13:07:53.296Z,41.95
2019-04-13T13:10:25.292Z,40.93
2019-04-13T13:12:53.669Z,39.94
2019-04-13T13:15:24.942Z,39.75
2019-04-13T13:17:54.608Z,38.31
2019-04-13T13:20:23.818Z,39.13
2019-04-13T13:22:52.467Z,39.13
2019-04-13T13:25:21.830Z,38.84
2019-04-13T13:27:53.569Z,39.59
2019-04-13T13:30:23.720Z,40.06
2019-04-13T13:32:56.708Z,40.08
2019-04-13T13:35:25.504Z,41.11
2019-04-13T13:37:54.079Z,40.41
2019-04-13T13:40:30.996Z,40.40
2019-04-13T13:42:53.275Z,40.72
2019-04-13T13:45:25.051Z,40.74
2019-04-13T13:47:53.662Z,40.71
2019-04-13T13:50:25.338Z,40.84
2019-04-13T13:52:53.918Z,41.89
2019-04-13T13:55:22.885Z,42.91
2019-04-13T13:58:12.770Z,41.79
2019-04-13T14:00:57.989Z,43.07
2019-04-13T14:03:27.076Z,43.49
2019-04-13T14:05:55.629Z,43.65
2019-04-13T14:08:24.217Z,43.98
2019-04-13T14:10:52.777Z,43.45
2019-04-13T14:13:22.869Z,43.51
2019-04-13T14:15:52.972Z,43.14
2019-04-13T14:18:26.266Z,43.91
2019-04-13T14:20:55.019Z,42.88
2019-04-13T14:23:23.592Z,42.66
2019-04-13T14:25:53.693Z,42.08
2019-04-13T14:28:23.467Z,42.89
2019-04-13T14:30:53.569Z,43.83
2019-04-13T14:33:23.767Z,41.75
2019-04-13T14:35:58.218Z,41.97
2019-04-13T14:38:26.874Z,43.03
2019-04-13T14:40:56.354Z,42.20
2019-04-13T14:43:38.200Z,43.70
2019-04-13T14:46:08.896Z,42.98
2019-04-13T14:48:38.011Z,43.98
2019-04-13T14:51:07.009Z,45.06
2019-04-13T14:53:36.343Z,44.60
2019-04-13T14:56:05.547Z,44.92
2019-04-13T14:58:34.225Z,45.70
2019-04-13T15:01:02.946Z,45.55
2019-04-13T15:03:31.529Z,45.20
2019-04-13T15:06:00.074Z,45.49
2019-04-13T15:08:28.732Z,44.77
2019-04-13T15:11:15.557Z,44.90
2019-04-13T15:13:27.656Z,45.84
2019-04-13T15:15:56.836Z,44.58
2019-04-13T15:18:32.923Z,44.83
2019-04-13T15:21:03.034Z,46.48
2019-04-13T15:23:34.907Z,45.13
2019-04-13T15:26:02.086Z,45.39
2019-04-13T15:28:34.948Z,45.88
2019-04-13T15:31:03.388Z,46.67
2019-04-13T15:33:32.904Z,45.59
2019-04-13T15:36:04.570Z,45.82
2019-04-13T15:38:32.851Z,44.80
2019-04-13T15:41:03.417Z,45.00
2019-04-13T15:43:34.669Z,44.65
2019-04-13T15:46:02.773Z,45.97
2019-04-13T15:48:32.402Z,44.83
2019-04-13T15:51:01.126Z,46.38
2019-04-13T15:53:29.685Z,45.74
2019-04-13T15:55:58.975Z,45.68
2019-04-13T15:58:27.671Z,46.51
2019-04-13T16:00:56.749Z,44.78
2019-04-13T16:03:25.904Z,45.59
2019-04-13T16:05:54.624Z,43.90
2019-04-13T16:08:24.332Z,45.86
2019-04-13T16:10:57.567Z,46.45
2019-04-13T16:13:26.307Z,46.06
2019-04-13T16:16:04.976Z,46.87
2019-04-13T16:18:34.754Z,45.00
2019-04-13T16:21:04.233Z,46.55
2019-04-13T16:23:32.804Z,44.98
2019-04-13T16:26:01.897Z,45.99
2019-04-13T16:28:48.408Z,45.47
2019-04-13T16:31:21.053Z,46.71
2019-04-13T16:33:52.498Z,46.97
2019-04-13T16:36:24.346Z,47.94
2019-04-13T16:39:00.714Z,46.56
2019-04-13T16:41:23.716Z,47.68
2019-04-13T16:43:59.610Z,48.00
2019-04-13T16:46:29.890Z,44.08
2019-04-13T16:49:07.681Z,45.84
2019-04-13T16:51:44.342Z,46.70
2019-04-13T16:54:21.175Z,46.62
2019-04-13T16:56:58.628Z,46.73
2019-04-13T16:59:32.234Z,48.50
2019-04-13T17:02:15.340Z,46.77
2019-04-13T17:04:46.575Z,47.60
2019-04-13T17:07:15.543Z,47.43
2019-04-13T17:09:45.659Z,47.20
2019-04-13T17:12:23.123Z,48.41
2019-04-13T17:14:45.592Z,47.94
2019-04-13T17:17:14.162Z,48.99
2019-04-13T17:19:53.561Z,47.97
2019-04-13T17:22:28.261Z,49.39
2019-04-13T17:25:14.876Z,50.10
2019-04-13T17:27:54.235Z,49.58
2019-04-13T17:30:23.969Z,49.89
2019-04-13T17:33:00.096Z,48.59
2019-04-13T17:35:29.511Z,49.29
2019-04-13T17:37:59.116Z,50.21
2019-04-13T17:40:30.468Z,49.92
2019-04-13T17:43:04.014Z,49.74
2019-04-13T17:45:40.079Z,50.17
2019-04-13T17:48:10.468Z,50.20
2019-04-13T17:50:47.437Z,51.11
2019-04-13T17:53:24.452Z,51.10
2019-04-13T17:55:55.798Z,50.68
2019-04-13T17:58:29.896Z,52.17
2019-04-13T18:01:16.888Z,51.92
2019-04-13T18:04:04.826Z,52.87
2019-04-13T18:06:35.875Z,53.75
2019-04-13T18:09:12.121Z,52.68
2019-04-13T18:11:59.248Z,53.87
2019-04-13T18:14:36.097Z,53.21
2019-04-13T18:17:07.317Z,52.65
2019-04-13T18:19:37.758Z,53.72
2019-04-13T18:22:06.438Z,54.41
2019-04-13T18:24:36.310Z,53.67
2019-04-13T18:27:04.972Z,54.62
2019-04-13T18:29:34.696Z,54.62
2019-04-13T18:32:03.325Z,54.27
2019-04-13T18:34:33.909Z,54.27
2019-04-13T18:37:03.613Z,54.32
2019-04-13T18:39:33.640Z,54.32
2019-04-13T18:42:03.450Z,54.84
2019-04-13T18:44:32.313Z,54.19
2019-04-13T18:47:01.407Z,54.40
2019-04-13T18:49:30.321Z,54.66
2019-04-13T18:51:58.922Z,54.66
2019-04-13T18:54:28.055Z,55.30
2019-04-13T18:56:58.189Z,54.81
2019-04-13T18:59:27.313Z,55.00
2019-04-13T19:01:55.949Z,55.74
2019-04-13T19:04:24.587Z,55.25
2019-04-13T19:06:53.154Z,55.27
2019-04-13T19:09:22.019Z,55.27
2019-04-13T19:11:50.720Z,57.42
2019-04-13T19:14:20.061Z,56.59
2019-04-13T19:16:48.689Z,56.03
2019-04-13T19:19:17.744Z,56.63
2019-04-13T19:21:46.395Z,56.63
2019-04-13T19:24:15.037Z,56.59
2019-04-13T19:26:43.596Z,56.59
2019-04-13T19:29:12.234Z,58.39
2019-04-13T19:31:40.855Z,57.49
2019-04-13T19:34:09.481Z,57.49
2019-04-13T19:36:38.241Z,56.60
2019-04-13T19:39:07.613Z,59.00
2019-04-13T19:41:36.463Z,57.16
2019-04-13T19:44:05.067Z,57.24
2019-04-13T19:46:35.668Z,57.50
2019-04-13T19:49:04.300Z,57.50
2019-04-13T19:51:40.477Z,58.35
2019-04-13T19:54:09.022Z,58.11
2019-04-13T19:56:37.618Z,58.18
2019-04-13T19:59:06.341Z,58.18
2019-04-13T20:01:34.963Z,57.89
2019-04-13T20:04:03.985Z,58.24
2019-04-13T20:06:32.567Z,56.62
2019-04-13T20:09:01.208Z,56.62
2019-04-13T20:11:29.842Z,57.76
2019-04-13T20:14:05.287Z,57.76
2019-04-13T20:16:29.758Z,57.24
2019-04-13T20:18:58.451Z,58.57
2019-04-13T20:21:27.058Z,58.57
2019-04-13T20:23:55.681Z,57.68
2019-04-13T20:26:25.784Z,57.68
2019-04-13T20:28:54.946Z,57.46
2019-04-13T20:31:24.742Z,57.87
2019-04-13T20:33:54.317Z,58.09
2019-04-13T20:36:25.517Z,58.09
2019-04-13T20:38:54.241Z,57.78
2019-04-13T20:41:29.492Z,59.32
2019-04-13T20:44:02.290Z,58.34
2019-04-13T20:46:25.715Z,58.34
2019-04-13T20:48:55.461Z,58.17
2019-04-13T20:51:25.491Z,60.36
2019-04-13T20:53:54.365Z,57.86
2019-04-13T20:56:23.077Z,57.86
2019-04-13T20:58:55.508Z,57.75
2019-04-13T21:01:24.220Z,59.16
2019-04-13T21:03:53.432Z,58.12
2019-04-13T21:06:24.032Z,57.53
2019-04-13T21:08:55.555Z,57.41
2019-04-13T21:11:22.915Z,57.41
2019-04-13T21:14:02.583Z,58.47
2019-04-13T21:16:25.583Z,57.86
2019-04-13T21:18:54.306Z,59.71
2019-04-13T21:21:23.783Z,59.71
2019-04-13T21:23:53.597Z,58.59
2019-04-13T21:26:24.221Z,58.36
2019-04-13T21:28:53.692Z,58.52
2019-04-13T21:31:22.480Z,58.52
2019-04-13T21:33:51.875Z,58.48
2019-04-13T21:36:21.608Z,58.61
2019-04-13T21:38:52.053Z,59.67
2019-04-13T21:41:21.659Z,59.96
2019-04-13T21:43:50.462Z,59.44
2019-04-13T21:46:19.632Z,58.97
2019-04-13T21:48:48.188Z,58.78
2019-04-13T21:51:21.016Z,59.01
2019-04-13T21:53:55.016Z,59.48
2019-04-13T21:56:26.746Z,59.48
2019-04-13T21:58:55.420Z,59.14
2019-04-13T22:01:32.395Z,60.02
2019-04-13T22:04:02.236Z,61.21
2019-04-13T22:06:31.970Z,61.21
2019-04-13T22:09:02.134Z,59.91
2019-04-13T22:11:32.151Z,59.91
2019-04-13T22:14:03.533Z,59.78
2019-04-13T22:16:31.942Z,59.54
2019-04-13T22:19:00.636Z,59.54
2019-04-13T22:21:29.267Z,59.52
2019-04-13T22:23:58.576Z,59.81
2019-04-13T22:26:28.269Z,59.81
2019-04-13T22:28:58.665Z,61.04
2019-04-13T22:31:28.962Z,61.87
2019-04-13T22:33:58.965Z,61.87
2019-04-13T22:36:29.148Z,60.98
2019-04-13T22:38:58.751Z,63.57
2019-04-13T22:41:28.864Z,62.82
2019-04-13T22:43:58.777Z,62.82
2019-04-13T22:46:28.240Z,62.52
2019-04-13T22:49:16.801Z,62.62
2019-04-13T22:52:02.117Z,63.02
2019-04-13T22:54:45.300Z,63.44
2019-04-13T22:57:32.492Z,62.86
2019-04-13T23:00:02.085Z,63.52
2019-04-13T23:02:36.379Z,63.52
2019-04-13T23:05:07.075Z,63.20
2019-04-13T23:07:36.956Z,63.63
2019-04-13T23:10:09.295Z,63.63
2019-04-13T23:12:38.007Z,64.23
2019-04-13T23:15:19.390Z,64.28
2019-04-13T23:17:39.941Z,64.28
2019-04-13T23:20:10.344Z,64.67
2019-04-13T23:22:39.000Z,64.53
2019-04-13T23:25:09.097Z,64.84
2019-04-13T23:27:37.844Z,64.89
2019-04-13T23:30:09.446Z,65.52
2019-04-13T23:32:38.177Z,65.32
2019-04-13T23:35:08.390Z,65.84
2019-04-13T23:37:37.031Z,65.84
2019-04-13T23:40:09.210Z,66.62
2019-04-13T23:42:38.000Z,65.88
2019-04-13T23:45:17.142Z,65.88
2019-04-13T23:47:38.387Z,66.88
2019-04-13T23:50:08.979Z,66.88
2019-04-13T23:52:37.767Z,67.21
2019-04-13T23:55:07.704Z,67.46
2019-04-13T23:57:38.123Z,68.03
